sensor_id;sensor_type;location;lat;lon;timestamp;temperature;humidity
68801;SHT31;55784;50.734;7.086;2024-03-22T00:01:09;10.92;87.91
68801;SHT31;55784;50.734;7.086;2024-03-22T00:03:34;10.95;87.90
68801;SHT31;55784;50.734;7.086;2024-03-22T00:06:00;10.90;87.96
68801;SHT31;55784;50.734;7.086;2024-03-22T00:08:25;10.93;88.01
68801;SHT31;55784;50.734;7.086;2024-03-22T00:10:50;10.93;88.01
68801;SHT31;55784;50.734;7.086;2024-03-22T00:13:16;10.93;88.04
68801;SHT31;55784;50.734;7.086;2024-03-22T00:15:41;10.90;88.13
68801;SHT31;55784;50.734;7.086;2024-03-22T00:18:09;10.89;88.19
68801;SHT31;55784;50.734;7.086;2024-03-22T00:20:34;10.89;88.44
68801;SHT31;55784;50.734;7.086;2024-03-22T00:22:59;10.84;88.54
68801;SHT31;55784;50.734;7.086;2024-03-22T00:25:25;10.83;88.63
68801;SHT31;55784;50.734;7.086;2024-03-22T00:27:50;10.87;88.75
68801;SHT31;55784;50.734;7.086;2024-03-22T00:30:15;10.87;88.71
68801;SHT31;55784;50.734;7.086;2024-03-22T00:32:41;10.92;88.67
68801;SHT31;55784;50.734;7.086;2024-03-22T00:35:09;10.96;88.62
68801;SHT31;55784;50.734;7.086;2024-03-22T00:37:34;10.97;88.54
68801;SHT31;55784;50.734;7.086;2024-03-22T00:39:59;10.99;88.52
68801;SHT31;55784;50.734;7.086;2024-03-22T00:42:25;10.96;88.39
68801;SHT31;55784;50.734;7.086;2024-03-22T00:44:50;10.92;88.66
68801;SHT31;55784;50.734;7.086;2024-03-22T00:47:15;10.84;88.76
68801;SHT31;55784;50.734;7.086;2024-03-22T00:49:40;10.80;88.95
68801;SHT31;55784;50.734;7.086;2024-03-22T00:52:06;10.73;89.05
68801;SHT31;55784;50.734;7.086;2024-03-22T00:54:31;10.70;89.18
68801;SHT31;55784;50.734;7.086;2024-03-22T00:56:56;10.65;89.29
68801;SHT31;55784;50.734;7.086;2024-03-22T00:59:22;10.69;89.39
68801;SHT31;55784;50.734;7.086;2024-03-22T01:01:48;10.59;89.59
68801;SHT31;55784;50.734;7.086;2024-03-22T01:04:14;10.53;89.72
68801;SHT31;55784;50.734;7.086;2024-03-22T01:06:39;10.52;89.98
68801;SHT31;55784;50.734;7.086;2024-03-22T01:09:05;10.50;89.99
68801;SHT31;55784;50.734;7.086;2024-03-22T01:11:31;10.48;90.13
68801;SHT31;55784;50.734;7.086;2024-03-22T01:13:56;10.48;90.08
68801;SHT31;55784;50.734;7.086;2024-03-22T01:16:22;10.48;90.10
68801;SHT31;55784;50.734;7.086;2024-03-22T01:18:47;10.48;90.01
68801;SHT31;55784;50.734;7.086;2024-03-22T01:21:13;10.52;89.93
68801;SHT31;55784;50.734;7.086;2024-03-22T01:23:39;10.52;89.79
68801;SHT31;55784;50.734;7.086;2024-03-22T01:26:04;10.55;89.71
68801;SHT31;55784;50.734;7.086;2024-03-22T01:28:29;10.53;89.68
68801;SHT31;55784;50.734;7.086;2024-03-22T01:30:55;10.49;89.61
68801;SHT31;55784;50.734;7.086;2024-03-22T01:33:20;10.49;89.53
68801;SHT31;55784;50.734;7.086;2024-03-22T01:35:45;10.52;89.61
68801;SHT31;55784;50.734;7.086;2024-03-22T01:38:10;10.52;89.65
68801;SHT31;55784;50.734;7.086;2024-03-22T01:40:36;10.55;89.62
68801;SHT31;55784;50.734;7.086;2024-03-22T01:43:01;10.57;89.57
68801;SHT31;55784;50.734;7.086;2024-03-22T01:45:31;10.57;89.54
68801;SHT31;55784;50.734;7.086;2024-03-22T01:47:57;10.57;89.39
68801;SHT31;55784;50.734;7.086;2024-03-22T01:50:22;10.60;89.36
68801;SHT31;55784;50.734;7.086;2024-03-22T01:52:49;10.63;89.25
68801;SHT31;55784;50.734;7.086;2024-03-22T01:55:14;10.66;89.14
68801;SHT31;55784;50.734;7.086;2024-03-22T01:57:40;10.67;88.96
68801;SHT31;55784;50.734;7.086;2024-03-22T02:00:06;10.65;88.92
68801;SHT31;55784;50.734;7.086;2024-03-22T02:02:34;10.60;88.98
68801;SHT31;55784;50.734;7.086;2024-03-22T02:04:59;10.62;88.99
68801;SHT31;55784;50.734;7.086;2024-03-22T02:07:24;10.53;89.13
68801;SHT31;55784;50.734;7.086;2024-03-22T02:09:50;10.53;89.26
68801;SHT31;55784;50.734;7.086;2024-03-22T02:12:15;10.50;89.42
68801;SHT31;55784;50.734;7.086;2024-03-22T02:14:41;10.52;89.55
68801;SHT31;55784;50.734;7.086;2024-03-22T02:17:06;10.56;89.55
68801;SHT31;55784;50.734;7.086;2024-03-22T02:19:31;10.53;89.58
68801;SHT31;55784;50.734;7.086;2024-03-22T02:21:57;10.55;89.56
68801;SHT31;55784;50.734;7.086;2024-03-22T02:24:22;10.56;89.55
68801;SHT31;55784;50.734;7.086;2024-03-22T02:26:47;10.62;89.54
68801;SHT31;55784;50.734;7.086;2024-03-22T02:29:13;10.59;89.52
68801;SHT31;55784;50.734;7.086;2024-03-22T02:31:38;10.62;89.48
68801;SHT31;55784;50.734;7.086;2024-03-22T02:34:03;10.65;89.52
68801;SHT31;55784;50.734;7.086;2024-03-22T02:36:28;10.69;89.36
68801;SHT31;55784;50.734;7.086;2024-03-22T02:38:54;10.70;89.25
68801;SHT31;55784;50.734;7.086;2024-03-22T02:41:20;10.70;89.24
68801;SHT31;55784;50.734;7.086;2024-03-22T02:43:46;10.70;89.25
68801;SHT31;55784;50.734;7.086;2024-03-22T02:46:11;10.69;89.20
68801;SHT31;55784;50.734;7.086;2024-03-22T02:48:36;10.69;89.20
68801;SHT31;55784;50.734;7.086;2024-03-22T02:51:02;10.67;89.19
68801;SHT31;55784;50.734;7.086;2024-03-22T02:53:27;10.67;89.23
68801;SHT31;55784;50.734;7.086;2024-03-22T02:55:53;10.70;89.20
68801;SHT31;55784;50.734;7.086;2024-03-22T02:58:20;10.73;89.19
68801;SHT31;55784;50.734;7.086;2024-03-22T03:00:45;10.73;89.19
68801;SHT31;55784;50.734;7.086;2024-03-22T03:03:11;10.79;89.10
68801;SHT31;55784;50.734;7.086;2024-03-22T03:05:36;10.79;89.07
68801;SHT31;55784;50.734;7.086;2024-03-22T03:08:01;10.81;88.95
68801;SHT31;55784;50.734;7.086;2024-03-22T03:10:28;10.87;88.78
68801;SHT31;55784;50.734;7.086;2024-03-22T03:12:54;10.92;88.68
68801;SHT31;55784;50.734;7.086;2024-03-22T03:15:20;10.95;88.63
68801;SHT31;55784;50.734;7.086;2024-03-22T03:17:45;10.97;88.43
68801;SHT31;55784;50.734;7.086;2024-03-22T03:20:11;11.00;88.40
68801;SHT31;55784;50.734;7.086;2024-03-22T03:22:41;11.01;88.33
68801;SHT31;55784;50.734;7.086;2024-03-22T03:25:07;11.01;88.38
68801;SHT31;55784;50.734;7.086;2024-03-22T03:27:32;11.04;88.43
68801;SHT31;55784;50.734;7.086;2024-03-22T03:29:58;11.01;88.53
68801;SHT31;55784;50.734;7.086;2024-03-22T03:32:23;11.01;88.57
68801;SHT31;55784;50.734;7.086;2024-03-22T03:34:50;11.03;88.58
68801;SHT31;55784;50.734;7.086;2024-03-22T03:37:15;11.03;88.60
68801;SHT31;55784;50.734;7.086;2024-03-22T03:39:40;11.07;88.61
68801;SHT31;55784;50.734;7.086;2024-03-22T03:42:06;11.07;88.53
68801;SHT31;55784;50.734;7.086;2024-03-22T03:44:31;11.11;88.49
68801;SHT31;55784;50.734;7.086;2024-03-22T03:46:56;11.16;88.37
68801;SHT31;55784;50.734;7.086;2024-03-22T03:49:22;11.21;88.29
68801;SHT31;55784;50.734;7.086;2024-03-22T03:51:47;11.20;88.19
68801;SHT31;55784;50.734;7.086;2024-03-22T03:54:13;11.21;88.36
68801;SHT31;55784;50.734;7.086;2024-03-22T03:56:38;11.23;88.63
68801;SHT31;55784;50.734;7.086;2024-03-22T03:59:03;11.24;88.73
68801;SHT31;55784;50.734;7.086;2024-03-22T04:01:28;11.26;88.88
68801;SHT31;55784;50.734;7.086;2024-03-22T04:03:54;11.24;89.04
68801;SHT31;55784;50.734;7.086;2024-03-22T04:06:19;11.26;89.09
68801;SHT31;55784;50.734;7.086;2024-03-22T04:08:45;11.26;89.36
68801;SHT31;55784;50.734;7.086;2024-03-22T04:11:10;11.26;89.30
68801;SHT31;55784;50.734;7.086;2024-03-22T04:13:36;11.30;89.41
68801;SHT31;55784;50.734;7.086;2024-03-22T04:16:02;11.32;89.44
68801;SHT31;55784;50.734;7.086;2024-03-22T04:18:27;11.34;89.37
68801;SHT31;55784;50.734;7.086;2024-03-22T04:20:53;11.37;89.35
68801;SHT31;55784;50.734;7.086;2024-03-22T04:23:19;11.41;89.63
68801;SHT31;55784;50.734;7.086;2024-03-22T04:26:05;11.44;89.33
68801;SHT31;55784;50.734;7.086;2024-03-22T04:28:30;11.44;89.53
68801;SHT31;55784;50.734;7.086;2024-03-22T04:31:06;11.41;89.78
68801;SHT31;55784;50.734;7.086;2024-03-22T04:33:34;11.41;89.95
68801;SHT31;55784;50.734;7.086;2024-03-22T04:36:00;11.48;89.80
68801;SHT31;55784;50.734;7.086;2024-03-22T04:38:27;11.54;88.87
68801;SHT31;55784;50.734;7.086;2024-03-22T04:40:53;11.58;88.77
68801;SHT31;55784;50.734;7.086;2024-03-22T04:43:19;11.60;88.54
68801;SHT31;55784;50.734;7.086;2024-03-22T04:45:46;11.62;87.98
68801;SHT31;55784;50.734;7.086;2024-03-22T04:48:13;11.61;88.05
68801;SHT31;55784;50.734;7.086;2024-03-22T04:50:39;11.62;88.20
68801;SHT31;55784;50.734;7.086;2024-03-22T04:53:04;11.65;87.93
68801;SHT31;55784;50.734;7.086;2024-03-22T04:55:31;11.65;87.70
68801;SHT31;55784;50.734;7.086;2024-03-22T04:57:56;11.64;87.81
68801;SHT31;55784;50.734;7.086;2024-03-22T05:00:21;11.62;87.54
68801;SHT31;55784;50.734;7.086;2024-03-22T05:02:47;11.60;87.40
68801;SHT31;55784;50.734;7.086;2024-03-22T05:05:13;11.54;87.53
68801;SHT31;55784;50.734;7.086;2024-03-22T05:07:38;11.50;87.59
68801;SHT31;55784;50.734;7.086;2024-03-22T05:10:04;11.42;87.79
68801;SHT31;55784;50.734;7.086;2024-03-22T05:12:30;11.47;87.82
68801;SHT31;55784;50.734;7.086;2024-03-22T05:14:55;11.42;87.78
68801;SHT31;55784;50.734;7.086;2024-03-22T05:17:21;11.45;87.78
68801;SHT31;55784;50.734;7.086;2024-03-22T05:19:46;11.51;87.68
68801;SHT31;55784;50.734;7.086;2024-03-22T05:22:12;11.52;87.43
68801;SHT31;55784;50.734;7.086;2024-03-22T05:24:37;11.52;87.46
68801;SHT31;55784;50.734;7.086;2024-03-22T05:27:03;11.54;87.30
68801;SHT31;55784;50.734;7.086;2024-03-22T05:29:28;11.57;87.28
68801;SHT31;55784;50.734;7.086;2024-03-22T05:31:53;11.57;87.24
68801;SHT31;55784;50.734;7.086;2024-03-22T05:34:19;11.60;87.21
68801;SHT31;55784;50.734;7.086;2024-03-22T05:36:45;11.65;87.09
68801;SHT31;55784;50.734;7.086;2024-03-22T05:39:11;11.68;86.86
68801;SHT31;55784;50.734;7.086;2024-03-22T05:41:37;11.67;86.84
68801;SHT31;55784;50.734;7.086;2024-03-22T05:44:03;11.71;86.73
68801;SHT31;55784;50.734;7.086;2024-03-22T05:46:29;11.74;86.49
68801;SHT31;55784;50.734;7.086;2024-03-22T05:48:56;11.77;86.56
68801;SHT31;55784;50.734;7.086;2024-03-22T05:51:21;11.79;86.50
68801;SHT31;55784;50.734;7.086;2024-03-22T05:53:46;11.82;86.52
68801;SHT31;55784;50.734;7.086;2024-03-22T05:56:12;11.85;86.38
68801;SHT31;55784;50.734;7.086;2024-03-22T05:58:37;11.91;86.22
68801;SHT31;55784;50.734;7.086;2024-03-22T06:01:02;11.95;86.18
68801;SHT31;55784;50.734;7.086;2024-03-22T06:03:28;12.03;85.91
68801;SHT31;55784;50.734;7.086;2024-03-22T06:05:54;12.06;85.74
68801;SHT31;55784;50.734;7.086;2024-03-22T06:08:22;12.11;85.41
68801;SHT31;55784;50.734;7.086;2024-03-22T06:10:48;12.13;85.36
68801;SHT31;55784;50.734;7.086;2024-03-22T06:13:13;12.25;85.22
68801;SHT31;55784;50.734;7.086;2024-03-22T06:15:38;12.26;85.10
68801;SHT31;55784;50.734;7.086;2024-03-22T06:18:05;12.26;85.05
68801;SHT31;55784;50.734;7.086;2024-03-22T06:20:31;12.30;85.09
68801;SHT31;55784;50.734;7.086;2024-03-22T06:22:56;12.39;84.96
68801;SHT31;55784;50.734;7.086;2024-03-22T06:25:22;12.44;84.76
68801;SHT31;55784;50.734;7.086;2024-03-22T06:27:47;12.52;84.43
68801;SHT31;55784;50.734;7.086;2024-03-22T06:30:13;12.56;84.25
68801;SHT31;55784;50.734;7.086;2024-03-22T06:32:38;12.59;84.47
68801;SHT31;55784;50.734;7.086;2024-03-22T06:35:03;12.61;84.35
68801;SHT31;55784;50.734;7.086;2024-03-22T06:37:30;12.63;84.09
68801;SHT31;55784;50.734;7.086;2024-03-22T06:39:56;12.64;83.96
68801;SHT31;55784;50.734;7.086;2024-03-22T06:42:21;12.67;83.67
68801;SHT31;55784;50.734;7.086;2024-03-22T06:44:48;12.67;83.66
68801;SHT31;55784;50.734;7.086;2024-03-22T06:47:13;12.76;83.58
68801;SHT31;55784;50.734;7.086;2024-03-22T06:49:39;12.80;83.32
68801;SHT31;55784;50.734;7.086;2024-03-22T06:52:04;12.86;83.25
68801;SHT31;55784;50.734;7.086;2024-03-22T06:54:29;12.88;83.06
68801;SHT31;55784;50.734;7.086;2024-03-22T06:56:55;12.94;82.98
68801;SHT31;55784;50.734;7.086;2024-03-22T06:59:20;13.01;82.61
68801;SHT31;55784;50.734;7.086;2024-03-22T07:01:45;13.03;82.57
68801;SHT31;55784;50.734;7.086;2024-03-22T07:04:11;13.04;82.51
68801;SHT31;55784;50.734;7.086;2024-03-22T07:06:36;13.10;82.35
68801;SHT31;55784;50.734;7.086;2024-03-22T07:09:01;13.11;82.38
68801;SHT31;55784;50.734;7.086;2024-03-22T07:11:27;13.12;82.32
68801;SHT31;55784;50.734;7.086;2024-03-22T07:13:52;13.22;82.24
68801;SHT31;55784;50.734;7.086;2024-03-22T07:16:18;13.28;82.13
68801;SHT31;55784;50.734;7.086;2024-03-22T07:18:44;13.38;82.07
68801;SHT31;55784;50.734;7.086;2024-03-22T07:21:09;13.54;81.27
68801;SHT31;55784;50.734;7.086;2024-03-22T07:23:35;13.76;80.62
68801;SHT31;55784;50.734;7.086;2024-03-22T07:26:01;13.99;79.91
68801;SHT31;55784;50.734;7.086;2024-03-22T07:28:30;14.20;79.79
68801;SHT31;55784;50.734;7.086;2024-03-22T07:30:55;14.37;78.93
68801;SHT31;55784;50.734;7.086;2024-03-22T07:33:20;14.50;78.77
68801;SHT31;55784;50.734;7.086;2024-03-22T07:35:45;14.74;78.17
68801;SHT31;55784;50.734;7.086;2024-03-22T07:38:11;14.99;78.09
68801;SHT31;55784;50.734;7.086;2024-03-22T07:40:36;15.22;77.26
68801;SHT31;55784;50.734;7.086;2024-03-22T07:43:02;15.52;76.43
68801;SHT31;55784;50.734;7.086;2024-03-22T07:45:39;15.80;75.89
68801;SHT31;55784;50.734;7.086;2024-03-22T07:48:04;15.93;74.78
68801;SHT31;55784;50.734;7.086;2024-03-22T07:50:30;16.10;74.46
68801;SHT31;55784;50.734;7.086;2024-03-22T07:52:55;15.86;74.54
68801;SHT31;55784;50.734;7.086;2024-03-22T07:55:22;16.07;74.29
68801;SHT31;55784;50.734;7.086;2024-03-22T07:57:47;16.07;74.29
68801;SHT31;55784;50.734;7.086;2024-03-22T08:00:16;15.69;73.88
68801;SHT31;55784;50.734;7.086;2024-03-22T08:02:41;15.96;73.90
68801;SHT31;55784;50.734;7.086;2024-03-22T08:05:07;15.82;74.04
68801;SHT31;55784;50.734;7.086;2024-03-22T08:07:32;15.80;74.12
68801;SHT31;55784;50.734;7.086;2024-03-22T08:09:57;15.89;74.12
68801;SHT31;55784;50.734;7.086;2024-03-22T08:12:24;16.11;74.31
68801;SHT31;55784;50.734;7.086;2024-03-22T08:14:49;16.30;73.91
68801;SHT31;55784;50.734;7.086;2024-03-22T08:17:15;16.49;73.29
68801;SHT31;55784;50.734;7.086;2024-03-22T08:19:41;16.52;72.41
68801;SHT31;55784;50.734;7.086;2024-03-22T08:22:06;16.58;72.50
68801;SHT31;55784;50.734;7.086;2024-03-22T08:24:31;16.79;71.93
68801;SHT31;55784;50.734;7.086;2024-03-22T08:26:57;17.02;71.40
68801;SHT31;55784;50.734;7.086;2024-03-22T08:29:24;17.12;71.24
68801;SHT31;55784;50.734;7.086;2024-03-22T08:31:50;16.96;71.50
68801;SHT31;55784;50.734;7.086;2024-03-22T08:34:16;16.71;72.14
68801;SHT31;55784;50.734;7.086;2024-03-22T08:36:41;16.78;71.81
68801;SHT31;55784;50.734;7.086;2024-03-22T08:39:09;16.86;71.94
68801;SHT31;55784;50.734;7.086;2024-03-22T08:41:37;16.88;71.72
68801;SHT31;55784;50.734;7.086;2024-03-22T08:44:08;17.16;71.59
68801;SHT31;55784;50.734;7.086;2024-03-22T08:46:33;17.40;71.00
68801;SHT31;55784;50.734;7.086;2024-03-22T08:48:59;17.34;70.90
68801;SHT31;55784;50.734;7.086;2024-03-22T08:51:24;17.05;71.91
68801;SHT31;55784;50.734;7.086;2024-03-22T08:53:50;17.23;72.00
68801;SHT31;55784;50.734;7.086;2024-03-22T08:56:15;17.12;71.50
68801;SHT31;55784;50.734;7.086;2024-03-22T08:58:44;17.24;71.70
68801;SHT31;55784;50.734;7.086;2024-03-22T09:01:09;17.05;72.18
68801;SHT31;55784;50.734;7.086;2024-03-22T09:03:36;16.98;72.52
68801;SHT31;55784;50.734;7.086;2024-03-22T09:06:02;17.06;72.99
68801;SHT31;55784;50.734;7.086;2024-03-22T09:08:28;17.19;72.90
68801;SHT31;55784;50.734;7.086;2024-03-22T09:10:54;17.15;73.35
68801;SHT31;55784;50.734;7.086;2024-03-22T09:13:20;16.98;72.65
68801;SHT31;55784;50.734;7.086;2024-03-22T09:15:45;16.81;73.27
68801;SHT31;55784;50.734;7.086;2024-03-22T09:18:10;16.98;73.45
68801;SHT31;55784;50.734;7.086;2024-03-22T09:20:36;16.96;74.06
68801;SHT31;55784;50.734;7.086;2024-03-22T09:23:01;17.01;74.49
68801;SHT31;55784;50.734;7.086;2024-03-22T09:25:27;17.26;73.12
68801;SHT31;55784;50.734;7.086;2024-03-22T09:27:52;17.40;72.10
68801;SHT31;55784;50.734;7.086;2024-03-22T09:30:18;17.53;71.73
68801;SHT31;55784;50.734;7.086;2024-03-22T09:32:44;17.63;71.51
68801;SHT31;55784;50.734;7.086;2024-03-22T09:35:09;17.78;71.44
68801;SHT31;55784;50.734;7.086;2024-03-22T09:37:35;17.94;71.08
68801;SHT31;55784;50.734;7.086;2024-03-22T09:40:01;18.00;70.28
68801;SHT31;55784;50.734;7.086;2024-03-22T09:42:29;17.95;70.53
68801;SHT31;55784;50.734;7.086;2024-03-22T09:44:57;18.02;70.22
68801;SHT31;55784;50.734;7.086;2024-03-22T09:47:23;17.93;70.86
68801;SHT31;55784;50.734;7.086;2024-03-22T09:49:49;17.87;70.71
68801;SHT31;55784;50.734;7.086;2024-03-22T09:52:15;17.87;70.56
68801;SHT31;55784;50.734;7.086;2024-03-22T09:54:44;18.00;70.69
68801;SHT31;55784;50.734;7.086;2024-03-22T09:57:14;18.34;69.83
68801;SHT31;55784;50.734;7.086;2024-03-22T09:59:43;18.32;69.34
68801;SHT31;55784;50.734;7.086;2024-03-22T10:02:11;18.39;68.66
68801;SHT31;55784;50.734;7.086;2024-03-22T10:04:37;18.28;68.47
68801;SHT31;55784;50.734;7.086;2024-03-22T10:07:05;18.48;67.86
68801;SHT31;55784;50.734;7.086;2024-03-22T10:09:32;18.56;66.47
68801;SHT31;55784;50.734;7.086;2024-03-22T10:11:58;18.92;66.10
68801;SHT31;55784;50.734;7.086;2024-03-22T10:14:23;18.87;66.11
68801;SHT31;55784;50.734;7.086;2024-03-22T10:16:52;19.04;65.80
68801;SHT31;55784;50.734;7.086;2024-03-22T10:19:22;19.13;65.73
68801;SHT31;55784;50.734;7.086;2024-03-22T10:21:59;19.31;65.67
68801;SHT31;55784;50.734;7.086;2024-03-22T10:24:25;19.40;64.31
68801;SHT31;55784;50.734;7.086;2024-03-22T10:26:50;19.50;64.23
68801;SHT31;55784;50.734;7.086;2024-03-22T10:29:16;19.38;64.03
68801;SHT31;55784;50.734;7.086;2024-03-22T10:31:42;18.83;65.40
68801;SHT31;55784;50.734;7.086;2024-03-22T10:34:08;18.95;64.95
68801;SHT31;55784;50.734;7.086;2024-03-22T10:36:34;19.06;64.45
68801;SHT31;55784;50.734;7.086;2024-03-22T10:39:00;19.13;63.92
68801;SHT31;55784;50.734;7.086;2024-03-22T10:41:26;18.89;64.77
68801;SHT31;55784;50.734;7.086;2024-03-22T10:43:51;18.48;65.37
68801;SHT31;55784;50.734;7.086;2024-03-22T10:46:20;18.53;66.16
68801;SHT31;55784;50.734;7.086;2024-03-22T10:48:45;18.34;65.58
68801;SHT31;55784;50.734;7.086;2024-03-22T10:51:12;18.16;66.38
68801;SHT31;55784;50.734;7.086;2024-03-22T10:53:39;18.39;66.94
68801;SHT31;55784;50.734;7.086;2024-03-22T10:56:06;18.45;65.79
68801;SHT31;55784;50.734;7.086;2024-03-22T10:58:33;18.90;65.16
68801;SHT31;55784;50.734;7.086;2024-03-22T11:00:59;19.16;64.51
68801;SHT31;55784;50.734;7.086;2024-03-22T11:03:25;19.31;63.35
68801;SHT31;55784;50.734;7.086;2024-03-22T11:05:56;19.47;62.88
68801;SHT31;55784;50.734;7.086;2024-03-22T11:08:29;19.58;62.38
68801;SHT31;55784;50.734;7.086;2024-03-22T11:10:58;19.55;62.06
68801;SHT31;55784;50.734;7.086;2024-03-22T11:13:23;19.35;62.60
68801;SHT31;55784;50.734;7.086;2024-03-22T11:15:51;19.30;62.20
68801;SHT31;55784;50.734;7.086;2024-03-22T11:18:17;19.50;61.97
68801;SHT31;55784;50.734;7.086;2024-03-22T11:20:43;19.58;61.59
68801;SHT31;55784;50.734;7.086;2024-03-22T11:23:10;19.67;61.24
68801;SHT31;55784;50.734;7.086;2024-03-22T11:25:35;19.51;61.47
68801;SHT31;55784;50.734;7.086;2024-03-22T11:28:01;19.57;61.76
68801;SHT31;55784;50.734;7.086;2024-03-22T11:30:32;19.65;60.41
68801;SHT31;55784;50.734;7.086;2024-03-22T11:33:01;19.20;61.41
68801;SHT31;55784;50.734;7.086;2024-03-22T11:35:26;19.51;61.56
68801;SHT31;55784;50.734;7.086;2024-03-22T11:37:52;19.51;60.70
68801;SHT31;55784;50.734;7.086;2024-03-22T11:40:17;19.67;60.72
68801;SHT31;55784;50.734;7.086;2024-03-22T11:42:46;20.01;60.62
68801;SHT31;55784;50.734;7.086;2024-03-22T11:45:13;20.06;59.77
68801;SHT31;55784;50.734;7.086;2024-03-22T11:47:39;19.67;61.50
68801;SHT31;55784;50.734;7.086;2024-03-22T11:50:05;18.86;60.99
68801;SHT31;55784;50.734;7.086;2024-03-22T11:52:30;18.99;61.43
68801;SHT31;55784;50.734;7.086;2024-03-22T11:54:56;19.21;61.62
68801;SHT31;55784;50.734;7.086;2024-03-22T11:57:22;19.06;61.21
68801;SHT31;55784;50.734;7.086;2024-03-22T11:59:48;19.28;61.54
68801;SHT31;55784;50.734;7.086;2024-03-22T12:02:13;19.34;61.26
68801;SHT31;55784;50.734;7.086;2024-03-22T12:04:46;19.31;61.14
68801;SHT31;55784;50.734;7.086;2024-03-22T12:07:16;19.54;61.25
68801;SHT31;55784;50.734;7.086;2024-03-22T12:09:42;19.11;62.01
68801;SHT31;55784;50.734;7.086;2024-03-22T12:12:10;19.13;61.76
68801;SHT31;55784;50.734;7.086;2024-03-22T12:14:35;19.31;61.64
68801;SHT31;55784;50.734;7.086;2024-03-22T12:17:02;18.89;61.40
68801;SHT31;55784;50.734;7.086;2024-03-22T12:19:28;18.95;62.22
68801;SHT31;55784;50.734;7.086;2024-03-22T12:21:53;19.19;62.22
68801;SHT31;55784;50.734;7.086;2024-03-22T12:24:18;19.16;61.70
68801;SHT31;55784;50.734;7.086;2024-03-22T12:26:44;19.31;60.89
68801;SHT31;55784;50.734;7.086;2024-03-22T12:29:09;19.41;60.64
68801;SHT31;55784;50.734;7.086;2024-03-22T12:31:37;19.32;60.79
68801;SHT31;55784;50.734;7.086;2024-03-22T12:34:03;19.07;62.00
68801;SHT31;55784;50.734;7.086;2024-03-22T12:36:28;19.17;61.12
68801;SHT31;55784;50.734;7.086;2024-03-22T12:38:54;19.19;61.05
68801;SHT31;55784;50.734;7.086;2024-03-22T12:41:19;19.41;60.89
68801;SHT31;55784;50.734;7.086;2024-03-22T12:43:44;19.48;60.47
68801;SHT31;55784;50.734;7.086;2024-03-22T12:46:10;19.40;60.62
68801;SHT31;55784;50.734;7.086;2024-03-22T12:48:35;19.20;60.77
68801;SHT31;55784;50.734;7.086;2024-03-22T12:51:01;19.09;61.33
68801;SHT31;55784;50.734;7.086;2024-03-22T12:53:26;18.82;61.77
68801;SHT31;55784;50.734;7.086;2024-03-22T12:55:52;18.93;61.97
68801;SHT31;55784;50.734;7.086;2024-03-22T12:58:17;18.99;61.58
68801;SHT31;55784;50.734;7.086;2024-03-22T13:00:43;18.85;61.54
68801;SHT31;55784;50.734;7.086;2024-03-22T13:03:08;18.79;62.00
68801;SHT31;55784;50.734;7.086;2024-03-22T13:05:35;18.79;62.00
68801;SHT31;55784;50.734;7.086;2024-03-22T13:08:00;18.82;61.77
68801;SHT31;55784;50.734;7.086;2024-03-22T13:10:26;18.70;62.03
68801;SHT31;55784;50.734;7.086;2024-03-22T13:12:51;18.80;61.95
68801;SHT31;55784;50.734;7.086;2024-03-22T13:15:16;18.92;61.98
68801;SHT31;55784;50.734;7.086;2024-03-22T13:17:42;19.04;61.90
68801;SHT31;55784;50.734;7.086;2024-03-22T13:20:07;19.28;61.20
68801;SHT31;55784;50.734;7.086;2024-03-22T13:22:37;19.79;60.31
68801;SHT31;55784;50.734;7.086;2024-03-22T13:25:03;20.13;59.05
68801;SHT31;55784;50.734;7.086;2024-03-22T13:27:32;20.16;58.56
68801;SHT31;55784;50.734;7.086;2024-03-22T13:29:57;20.12;58.73
68801;SHT31;55784;50.734;7.086;2024-03-22T13:32:22;19.78;58.99
68801;SHT31;55784;50.734;7.086;2024-03-22T13:34:48;19.13;59.53
68801;SHT31;55784;50.734;7.086;2024-03-22T13:37:13;18.76;60.32
68801;SHT31;55784;50.734;7.086;2024-03-22T13:39:38;18.92;60.60
68801;SHT31;55784;50.734;7.086;2024-03-22T13:42:04;19.28;60.45
68801;SHT31;55784;50.734;7.086;2024-03-22T13:44:32;19.10;59.57
68801;SHT31;55784;50.734;7.086;2024-03-22T13:46:57;19.13;58.88
68801;SHT31;55784;50.734;7.086;2024-03-22T13:49:23;19.23;57.70
68801;SHT31;55784;50.734;7.086;2024-03-22T13:51:49;19.53;57.14
68801;SHT31;55784;50.734;7.086;2024-03-22T13:54:15;20.04;56.53
68801;SHT31;55784;50.734;7.086;2024-03-22T13:56:40;20.16;55.89
68801;SHT31;55784;50.734;7.086;2024-03-22T13:59:06;20.43;55.05
68801;SHT31;55784;50.734;7.086;2024-03-22T14:01:36;20.40;54.39
68801;SHT31;55784;50.734;7.086;2024-03-22T14:04:05;20.22;54.47
68801;SHT31;55784;50.734;7.086;2024-03-22T14:06:31;20.11;55.12
68801;SHT31;55784;50.734;7.086;2024-03-22T14:08:57;19.65;56.02
68801;SHT31;55784;50.734;7.086;2024-03-22T14:11:27;19.67;56.53
68801;SHT31;55784;50.734;7.086;2024-03-22T14:13:52;19.78;56.61
68801;SHT31;55784;50.734;7.086;2024-03-22T14:16:18;19.81;56.26
68801;SHT31;55784;50.734;7.086;2024-03-22T14:18:43;19.81;55.35
68801;SHT31;55784;50.734;7.086;2024-03-22T14:21:08;19.74;55.49
68801;SHT31;55784;50.734;7.086;2024-03-22T14:23:33;19.78;55.82
68801;SHT31;55784;50.734;7.086;2024-03-22T14:25:59;19.47;56.56
68801;SHT31;55784;50.734;7.086;2024-03-22T14:28:24;19.13;56.83
68801;SHT31;55784;50.734;7.086;2024-03-22T14:30:50;18.95;57.35
68801;SHT31;55784;50.734;7.086;2024-03-22T14:33:15;19.02;57.09
68801;SHT31;55784;50.734;7.086;2024-03-22T14:35:42;18.62;56.84
68801;SHT31;55784;50.734;7.086;2024-03-22T14:38:07;18.45;58.04
68801;SHT31;55784;50.734;7.086;2024-03-22T14:40:33;18.49;58.64
68801;SHT31;55784;50.734;7.086;2024-03-22T14:43:02;18.56;59.14
68801;SHT31;55784;50.734;7.086;2024-03-22T14:45:28;18.66;59.59
68801;SHT31;55784;50.734;7.086;2024-03-22T14:47:53;18.56;59.75
68801;SHT31;55784;50.734;7.086;2024-03-22T14:50:19;18.96;59.97
68801;SHT31;55784;50.734;7.086;2024-03-22T14:52:44;18.72;59.88
68801;SHT31;55784;50.734;7.086;2024-03-22T14:55:12;18.51;59.85
68801;SHT31;55784;50.734;7.086;2024-03-22T14:57:37;18.39;59.80
68801;SHT31;55784;50.734;7.086;2024-03-22T15:00:03;18.44;60.68
68801;SHT31;55784;50.734;7.086;2024-03-22T15:02:28;18.39;60.72
68801;SHT31;55784;50.734;7.086;2024-03-22T15:04:54;18.11;61.69
68801;SHT31;55784;50.734;7.086;2024-03-22T15:07:19;17.83;61.90
68801;SHT31;55784;50.734;7.086;2024-03-22T15:09:44;17.80;62.10
68801;SHT31;55784;50.734;7.086;2024-03-22T15:12:10;18.02;61.38
68801;SHT31;55784;50.734;7.086;2024-03-22T15:14:35;18.04;61.55
68801;SHT31;55784;50.734;7.086;2024-03-22T15:17:00;18.02;60.48
68801;SHT31;55784;50.734;7.086;2024-03-22T15:19:26;18.00;60.63
68801;SHT31;55784;50.734;7.086;2024-03-22T15:21:51;17.80;60.30